sensor_id;sensor_type;location;lat;lon;timestamp;pressure;altitude;pressure_sealevel;temperature;humidity
84374;BME280;74563;52.206;14.630;2024-01-25T00:02:15;101232.38;;;11.42;56.41
84374;BME280;74563;52.206;14.630;2024-01-25T00:04:41;101217.06;;;11.87;54.12
84374;BME280;74563;52.206;14.630;2024-01-25T00:07:08;101217.47;;;11.75;54.54
84374;BME280;74563;52.206;14.630;2024-01-25T00:09:33;101246.84;;;12.00;55.03
84374;BME280;74563;52.206;14.630;2024-01-25T00:11:59;101241.47;;;12.26;53.03
84374;BME280;74563;52.206;14.630;2024-01-25T00:14:24;101243.91;;;11.86;54.90
84374;BME280;74563;52.206;14.630;2024-01-25T00:16:49;101241.72;;;12.49;52.48
84374;BME280;74563;52.206;14.630;2024-01-25T00:19:15;101255.19;;;11.62;55.20
84374;BME280;74563;52.206;14.630;2024-01-25T00:21:43;101249.97;;;11.96;54.33
84374;BME280;74563;52.206;14.630;2024-01-25T00:24:11;101272.19;;;11.79;54.83
84374;BME280;74563;52.206;14.630;2024-01-25T00:26:36;101254.56;;;11.42;55.54
84374;BME280;74563;52.206;14.630;2024-01-25T00:29:01;101264.28;;;12.54;53.88
84374;BME280;74563;52.206;14.630;2024-01-25T00:31:27;101262.69;;;12.02;53.33
84374;BME280;74563;52.206;14.630;2024-01-25T00:33:52;101287.69;;;12.01;55.04
84374;BME280;74563;52.206;14.630;2024-01-25T00:36:18;101257.88;;;11.80;54.48
84374;BME280;74563;52.206;14.630;2024-01-25T00:38:43;101269.94;;;11.92;54.81
84374;BME280;74563;52.206;14.630;2024-01-25T00:41:09;101275.56;;;11.81;54.23
84374;BME280;74563;52.206;14.630;2024-01-25T00:43:35;101284.06;;;12.10;53.33
84374;BME280;74563;52.206;14.630;2024-01-25T00:46:01;101276.34;;;12.25;54.07
84374;BME280;74563;52.206;14.630;2024-01-25T00:48:26;101284.03;;;11.76;53.55
84374;BME280;74563;52.206;14.630;2024-01-25T00:50:52;101281.19;;;11.60;53.64
84374;BME280;74563;52.206;14.630;2024-01-25T00:53:18;101263.69;;;12.01;54.13
84374;BME280;74563;52.206;14.630;2024-01-25T00:55:43;101288.06;;;11.80;53.86
84374;BME280;74563;52.206;14.630;2024-01-25T00:58:09;101272.16;;;12.22;52.67
84374;BME280;74563;52.206;14.630;2024-01-25T01:00:34;101311.75;;;12.35;52.98
84374;BME280;74563;52.206;14.630;2024-01-25T01:03:02;101287.41;;;11.69;54.50
84374;BME280;74563;52.206;14.630;2024-01-25T01:05:29;101300.47;;;12.15;54.45
84374;BME280;74563;52.206;14.630;2024-01-25T01:07:54;101321.56;;;12.26;53.54
84374;BME280;74563;52.206;14.630;2024-01-25T01:10:20;101294.22;;;11.28;56.69
84374;BME280;74563;52.206;14.630;2024-01-25T01:12:45;101297.72;;;11.64;54.75
84374;BME280;74563;52.206;14.630;2024-01-25T01:15:10;101299.69;;;12.23;54.48
84374;BME280;74563;52.206;14.630;2024-01-25T01:17:36;101296.50;;;11.58;55.92
84374;BME280;74563;52.206;14.630;2024-01-25T01:20:01;101313.97;;;12.14;55.19
84374;BME280;74563;52.206;14.630;2024-01-25T01:22:26;101321.25;;;11.86;56.36
84374;BME280;74563;52.206;14.630;2024-01-25T01:24:51;101306.50;;;11.74;55.42
84374;BME280;74563;52.206;14.630;2024-01-25T01:27:17;101320.72;;;12.00;54.53
84374;BME280;74563;52.206;14.630;2024-01-25T01:29:42;101308.88;;;11.77;56.26
84374;BME280;74563;52.206;14.630;2024-01-25T01:32:07;101301.06;;;12.09;54.81
84374;BME280;74563;52.206;14.630;2024-01-25T01:34:33;101293.50;;;11.08;57.12
84374;BME280;74563;52.206;14.630;2024-01-25T01:36:58;101272.66;;;11.56;56.63
84374;BME280;74563;52.206;14.630;2024-01-25T01:39:23;101307.38;;;12.00;55.18
84374;BME280;74563;52.206;14.630;2024-01-25T01:41:50;101291.69;;;11.62;55.81
84374;BME280;74563;52.206;14.630;2024-01-25T01:44:15;101315.06;;;11.68;55.03
84374;BME280;74563;52.206;14.630;2024-01-25T01:46:41;101328.25;;;11.34;58.42
84374;BME280;74563;52.206;14.630;2024-01-25T01:49:08;101334.38;;;12.48;55.18
84374;BME280;74563;52.206;14.630;2024-01-25T01:51:36;101328.78;;;12.08;54.91
84374;BME280;74563;52.206;14.630;2024-01-25T01:54:02;101337.34;;;11.94;56.34
84374;BME280;74563;52.206;14.630;2024-01-25T01:56:28;101342.59;;;12.29;55.49
84374;BME280;74563;52.206;14.630;2024-01-25T01:59:04;101342.13;;;12.08;55.35
84374;BME280;74563;52.206;14.630;2024-01-25T02:01:29;101327.22;;;11.80;55.46
84374;BME280;74563;52.206;14.630;2024-01-25T02:03:56;101333.81;;;12.37;54.28
84374;BME280;74563;52.206;14.630;2024-01-25T02:06:23;101346.28;;;12.62;53.71
84374;BME280;74563;52.206;14.630;2024-01-25T02:08:49;101328.47;;;12.11;55.60
84374;BME280;74563;52.206;14.630;2024-01-25T02:11:16;101319.66;;;11.93;55.11
84374;BME280;74563;52.206;14.630;2024-01-25T02:13:41;101336.09;;;12.06;56.10
84374;BME280;74563;52.206;14.630;2024-01-25T02:16:07;101334.75;;;12.02;56.78
84374;BME280;74563;52.206;14.630;2024-01-25T02:18:33;101330.53;;;11.74;55.58
84374;BME280;74563;52.206;14.630;2024-01-25T02:20:59;101316.25;;;11.83;55.84
84374;BME280;74563;52.206;14.630;2024-01-25T02:23:25;101327.75;;;11.83;55.83
84374;BME280;74563;52.206;14.630;2024-01-25T02:25:50;101345.47;;;11.57;57.25
84374;BME280;74563;52.206;14.630;2024-01-25T02:28:15;101307.38;;;11.65;56.25
84374;BME280;74563;52.206;14.630;2024-01-25T02:30:41;101306.34;;;11.75;55.22
84374;BME280;74563;52.206;14.630;2024-01-25T02:33:06;101321.63;;;11.20;56.62
84374;BME280;74563;52.206;14.630;2024-01-25T02:35:32;101332.09;;;11.84;56.00
84374;BME280;74563;52.206;14.630;2024-01-25T02:37:57;101343.22;;;11.80;56.09
84374;BME280;74563;52.206;14.630;2024-01-25T02:40:22;101316.09;;;11.84;56.92
84374;BME280;74563;52.206;14.630;2024-01-25T02:42:47;101343.84;;;11.29;57.87
84374;BME280;74563;52.206;14.630;2024-01-25T02:45:12;101328.66;;;11.21;58.30
84374;BME280;74563;52.206;14.630;2024-01-25T02:47:38;101337.44;;;11.67;57.12
84374;BME280;74563;52.206;14.630;2024-01-25T02:50:03;101324.69;;;11.61;57.73
84374;BME280;74563;52.206;14.630;2024-01-25T02:52:29;101360.38;;;11.95;56.72
84374;BME280;74563;52.206;14.630;2024-01-25T02:54:54;101336.72;;;11.29;57.42
84374;BME280;74563;52.206;14.630;2024-01-25T02:57:19;101340.66;;;11.43;56.80
84374;BME280;74563;52.206;14.630;2024-01-25T02:59:44;101347.34;;;12.18;55.24
84374;BME280;74563;52.206;14.630;2024-01-25T03:02:12;101315.34;;;12.51;54.76
84374;BME280;74563;52.206;14.630;2024-01-25T03:04:37;101335.78;;;12.35;56.48
84374;BME280;74563;52.206;14.630;2024-01-25T03:07:03;101282.56;;;11.46;57.28
84374;BME280;74563;52.206;14.630;2024-01-25T03:09:28;101360.66;;;11.92;57.56
84374;BME280;74563;52.206;14.630;2024-01-25T03:11:53;101350.84;;;11.75;56.38
84374;BME280;74563;52.206;14.630;2024-01-25T03:14:18;101342.34;;;11.44;57.92
84374;BME280;74563;52.206;14.630;2024-01-25T03:16:44;101355.94;;;11.86;56.51
84374;BME280;74563;52.206;14.630;2024-01-25T03:19:10;101347.00;;;11.24;58.15
84374;BME280;74563;52.206;14.630;2024-01-25T03:21:36;101374.44;;;11.52;56.89
84374;BME280;74563;52.206;14.630;2024-01-25T03:24:01;101374.03;;;11.47;57.02
84374;BME280;74563;52.206;14.630;2024-01-25T03:26:27;101348.72;;;11.78;55.94
84374;BME280;74563;52.206;14.630;2024-01-25T03:28:52;101387.66;;;11.89;56.36
84374;BME280;74563;52.206;14.630;2024-01-25T03:31:18;101376.38;;;11.95;55.93
84374;BME280;74563;52.206;14.630;2024-01-25T03:33:43;101394.97;;;12.04;55.60
84374;BME280;74563;52.206;14.630;2024-01-25T03:36:08;101364.03;;;11.94;55.84
84374;BME280;74563;52.206;14.630;2024-01-25T03:38:33;101385.47;;;11.57;55.76
84374;BME280;74563;52.206;14.630;2024-01-25T03:40:59;101371.69;;;12.15;55.18
84374;BME280;74563;52.206;14.630;2024-01-25T03:43:25;101367.25;;;11.80;56.02
84374;BME280;74563;52.206;14.630;2024-01-25T03:45:51;101354.81;;;11.53;56.57
84374;BME280;74563;52.206;14.630;2024-01-25T03:48:16;101350.97;;;11.55;56.68
84374;BME280;74563;52.206;14.630;2024-01-25T03:50:41;101347.50;;;12.16;55.52
84374;BME280;74563;52.206;14.630;2024-01-25T03:53:07;101388.06;;;11.76;55.44
84374;BME280;74563;52.206;14.630;2024-01-25T03:55:32;101388.34;;;11.73;56.52
84374;BME280;74563;52.206;14.630;2024-01-25T03:57:57;101374.25;;;11.81;57.54
84374;BME280;74563;52.206;14.630;2024-01-25T04:00:22;101367.19;;;11.44;57.89
84374;BME280;74563;52.206;14.630;2024-01-25T04:02:48;101387.91;;;11.50;57.86
84374;BME280;74563;52.206;14.630;2024-01-25T04:05:13;101364.41;;;11.81;57.04
84374;BME280;74563;52.206;14.630;2024-01-25T04:07:39;101370.19;;;11.59;56.33
84374;BME280;74563;52.206;14.630;2024-01-25T04:10:05;101376.28;;;11.51;57.32
84374;BME280;74563;52.206;14.630;2024-01-25T04:12:30;101382.19;;;11.73;56.44
84374;BME280;74563;52.206;14.630;2024-01-25T04:14:56;101376.06;;;11.63;56.13
84374;BME280;74563;52.206;14.630;2024-01-25T04:17:22;101361.44;;;11.22;57.04
84374;BME280;74563;52.206;14.630;2024-01-25T04:19:47;101381.69;;;11.42;57.95
84374;BME280;74563;52.206;14.630;2024-01-25T04:22:12;101328.72;;;11.47;56.11
84374;BME280;74563;52.206;14.630;2024-01-25T04:24:37;101332.22;;;11.30;56.26
84374;BME280;74563;52.206;14.630;2024-01-25T04:27:03;101383.91;;;11.99;55.78
84374;BME280;74563;52.206;14.630;2024-01-25T04:29:28;101371.72;;;11.79;55.31
84374;BME280;74563;52.206;14.630;2024-01-25T04:31:53;101372.16;;;11.57;55.59
84374;BME280;74563;52.206;14.630;2024-01-25T04:34:18;101391.22;;;11.62;55.93
84374;BME280;74563;52.206;14.630;2024-01-25T04:36:44;101383.34;;;11.61;55.96
84374;BME280;74563;52.206;14.630;2024-01-25T04:39:09;101388.06;;;11.31;55.96
84374;BME280;74563;52.206;14.630;2024-01-25T04:41:36;101408.09;;;11.35;57.26
84374;BME280;74563;52.206;14.630;2024-01-25T04:44:01;101366.03;;;11.29;56.47
84374;BME280;74563;52.206;14.630;2024-01-25T04:46:26;101383.03;;;11.91;54.61
84374;BME280;74563;52.206;14.630;2024-01-25T04:48:52;101366.19;;;11.28;56.82
84374;BME280;74563;52.206;14.630;2024-01-25T04:51:18;101383.50;;;11.41;56.26
84374;BME280;74563;52.206;14.630;2024-01-25T04:53:45;101399.13;;;11.54;55.60
84374;BME280;74563;52.206;14.630;2024-01-25T04:56:10;101411.63;;;11.26;55.90
84374;BME280;74563;52.206;14.630;2024-01-25T04:58:35;101393.28;;;10.96;56.23
84374;BME280;74563;52.206;14.630;2024-01-25T05:01:01;101419.22;;;10.94;56.66
84374;BME280;74563;52.206;14.630;2024-01-25T05:03:26;101423.88;;;11.46;55.58
84374;BME280;74563;52.206;14.630;2024-01-25T05:05:51;101408.78;;;11.37;56.00
84374;BME280;74563;52.206;14.630;2024-01-25T05:08:17;101418.69;;;11.90;53.85
84374;BME280;74563;52.206;14.630;2024-01-25T05:10:42;101419.88;;;11.05;55.33
84374;BME280;74563;52.206;14.630;2024-01-25T05:13:08;101439.56;;;10.95;56.88
84374;BME280;74563;52.206;14.630;2024-01-25T05:15:34;101435.06;;;10.95;56.96
84374;BME280;74563;52.206;14.630;2024-01-25T05:17:59;101437.00;;;11.03;56.58
84374;BME280;74563;52.206;14.630;2024-01-25T05:20:25;101425.41;;;11.94;52.91
84374;BME280;74563;52.206;14.630;2024-01-25T05:22:57;101439.75;;;11.21;55.57
84374;BME280;74563;52.206;14.630;2024-01-25T05:25:22;101433.94;;;11.52;54.47
84374;BME280;74563;52.206;14.630;2024-01-25T05:27:47;101457.22;;;11.60;55.45
84374;BME280;74563;52.206;14.630;2024-01-25T05:30:13;101416.63;;;11.39;55.00
84374;BME280;74563;52.206;14.630;2024-01-25T05:32:38;101463.81;;;11.29;54.91
84374;BME280;74563;52.206;14.630;2024-01-25T05:35:04;101456.38;;;11.60;54.08
84374;BME280;74563;52.206;14.630;2024-01-25T05:37:29;101476.75;;;11.78;54.43
84374;BME280;74563;52.206;14.630;2024-01-25T05:39:56;101495.09;;;11.64;53.23
84374;BME280;74563;52.206;14.630;2024-01-25T05:42:21;101484.50;;;11.17;53.63
84374;BME280;74563;52.206;14.630;2024-01-25T05:44:47;101479.25;;;11.25;55.26
84374;BME280;74563;52.206;14.630;2024-01-25T05:47:12;101476.47;;;12.17;52.66
84374;BME280;74563;52.206;14.630;2024-01-25T05:49:37;101474.22;;;11.22;54.30
84374;BME280;74563;52.206;14.630;2024-01-25T05:52:03;101498.44;;;11.66;53.47
84374;BME280;74563;52.206;14.630;2024-01-25T05:54:28;101513.63;;;11.28;53.94
84374;BME280;74563;52.206;14.630;2024-01-25T05:56:53;101507.47;;;11.28;54.26
84374;BME280;74563;52.206;14.630;2024-01-25T05:59:19;101483.44;;;11.00;53.96
84374;BME280;74563;52.206;14.630;2024-01-25T06:01:44;101531.63;;;11.17;54.02
84374;BME280;74563;52.206;14.630;2024-01-25T06:04:09;101510.00;;;11.56;53.81
84374;BME280;74563;52.206;14.630;2024-01-25T06:06:35;101530.41;;;11.11;56.20
84374;BME280;74563;52.206;14.630;2024-01-25T06:09:00;101505.94;;;11.52;54.07
84374;BME280;74563;52.206;14.630;2024-01-25T06:11:25;101522.09;;;12.05;52.43
84374;BME280;74563;52.206;14.630;2024-01-25T06:13:50;101496.69;;;11.20;54.12
84374;BME280;74563;52.206;14.630;2024-01-25T06:16:16;101502.00;;;11.20;54.91
84374;BME280;74563;52.206;14.630;2024-01-25T06:18:41;101532.97;;;11.30;53.76
84374;BME280;74563;52.206;14.630;2024-01-25T06:21:06;101486.63;;;11.14;54.75
84374;BME280;74563;52.206;14.630;2024-01-25T06:23:32;101508.78;;;11.14;54.41
84374;BME280;74563;52.206;14.630;2024-01-25T06:25:57;101538.25;;;11.49;54.87
84374;BME280;74563;52.206;14.630;2024-01-25T06:28:22;101531.91;;;11.50;53.56
84374;BME280;74563;52.206;14.630;2024-01-25T06:30:47;101521.84;;;11.44;53.29
84374;BME280;74563;52.206;14.630;2024-01-25T06:33:13;101482.13;;;10.68;55.42
84374;BME280;74563;52.206;14.630;2024-01-25T06:35:38;101520.84;;;11.18;54.18
84374;BME280;74563;52.206;14.630;2024-01-25T06:38:03;101533.94;;;11.39;54.65
84374;BME280;74563;52.206;14.630;2024-01-25T06:40:29;101541.78;;;11.40;55.04
84374;BME280;74563;52.206;14.630;2024-01-25T06:42:54;101534.56;;;11.50;54.19
84374;BME280;74563;52.206;14.630;2024-01-25T06:45:19;101565.44;;;11.16;56.05
84374;BME280;74563;52.206;14.630;2024-01-25T06:47:44;101551.13;;;11.17;54.55
84374;BME280;74563;52.206;14.630;2024-01-25T06:50:10;101547.78;;;11.05;55.32
84374;BME280;74563;52.206;14.630;2024-01-25T06:52:35;101556.81;;;10.85;55.64
84374;BME280;74563;52.206;14.630;2024-01-25T06:55:00;101570.91;;;11.15;55.43
84374;BME280;74563;52.206;14.630;2024-01-25T06:57:26;101567.47;;;11.69;53.72
84374;BME280;74563;52.206;14.630;2024-01-25T06:59:51;101550.59;;;11.04;54.81
84374;BME280;74563;52.206;14.630;2024-01-25T07:02:17;101571.72;;;11.15;55.52
84374;BME280;74563;52.206;14.630;2024-01-25T07:04:42;101568.69;;;11.10;55.54
84374;BME280;74563;52.206;14.630;2024-01-25T07:07:07;101584.88;;;11.36;55.57
84374;BME280;74563;52.206;14.630;2024-01-25T07:09:32;101588.34;;;10.71;56.38
84374;BME280;74563;52.206;14.630;2024-01-25T07:11:58;101551.88;;;10.90;55.91
84374;BME280;74563;52.206;14.630;2024-01-25T07:14:23;101594.28;;;11.30;54.90
84374;BME280;74563;52.206;14.630;2024-01-25T07:16:48;101584.94;;;11.53;53.25
84374;BME280;74563;52.206;14.630;2024-01-25T07:19:14;101583.03;;;11.36;53.75
84374;BME280;74563;52.206;14.630;2024-01-25T07:21:39;101607.66;;;11.57;54.39
84374;BME280;74563;52.206;14.630;2024-01-25T07:24:05;101610.88;;;11.71;54.15
84374;BME280;74563;52.206;14.630;2024-01-25T07:26:30;101617.75;;;11.73;53.35
84374;BME280;74563;52.206;14.630;2024-01-25T07:28:56;101620.56;;;11.72;53.74
84374;BME280;74563;52.206;14.630;2024-01-25T07:31:25;101600.44;;;11.40;55.01
84374;BME280;74563;52.206;14.630;2024-01-25T07:33:50;101619.38;;;11.37;53.86
84374;BME280;74563;52.206;14.630;2024-01-25T07:36:17;101505.66;;;10.63;53.84
84374;BME280;74563;52.206;14.630;2024-01-25T07:38:43;101620.31;;;11.55;54.05
84374;BME280;74563;52.206;14.630;2024-01-25T07:41:09;101610.34;;;11.57;53.65
84374;BME280;74563;52.206;14.630;2024-01-25T07:43:34;101633.72;;;11.27;55.56
84374;BME280;74563;52.206;14.630;2024-01-25T07:45:59;101609.72;;;11.83;52.68
84374;BME280;74563;52.206;14.630;2024-01-25T07:48:24;101596.59;;;11.06;54.89
84374;BME280;74563;52.206;14.630;2024-01-25T07:50:50;101619.97;;;11.31;53.91
84374;BME280;74563;52.206;14.630;2024-01-25T07:53:15;101627.88;;;10.66;56.18
84374;BME280;74563;52.206;14.630;2024-01-25T07:55:41;101638.44;;;11.52;54.01
84374;BME280;74563;52.206;14.630;2024-01-25T07:58:07;101644.44;;;11.64;53.57
84374;BME280;74563;52.206;14.630;2024-01-25T08:00:32;101631.16;;;12.18;51.62
84374;BME280;74563;52.206;14.630;2024-01-25T08:02:58;101582.56;;;11.14;53.84
84374;BME280;74563;52.206;14.630;2024-01-25T08:05:23;101644.41;;;11.83;53.07
84374;BME280;74563;52.206;14.630;2024-01-25T08:07:48;101646.00;;;11.56;53.80
84374;BME280;74563;52.206;14.630;2024-01-25T08:10:14;101632.13;;;11.43;53.75
84374;BME280;74563;52.206;14.630;2024-01-25T08:12:40;101642.16;;;11.32;54.85
84374;BME280;74563;52.206;14.630;2024-01-25T08:15:09;101654.28;;;11.73;53.83
84374;BME280;74563;52.206;14.630;2024-01-25T08:17:34;101657.22;;;11.50;54.17
84374;BME280;74563;52.206;14.630;2024-01-25T08:20:01;101658.63;;;11.74;54.23
84374;BME280;74563;52.206;14.630;2024-01-25T08:22:27;101653.75;;;11.40;54.65
84374;BME280;74563;52.206;14.630;2024-01-25T08:24:53;101659.94;;;11.41;54.48
84374;BME280;74563;52.206;14.630;2024-01-25T08:27:18;101664.56;;;11.48;54.85
84374;BME280;74563;52.206;14.630;2024-01-25T08:29:44;101662.22;;;11.07;55.67
84374;BME280;74563;52.206;14.630;2024-01-25T08:32:10;101645.09;;;10.90;55.63
84374;BME280;74563;52.206;14.630;2024-01-25T08:34:35;101651.25;;;11.29;54.68
84374;BME280;74563;52.206;14.630;2024-01-25T08:37:00;101679.63;;;11.11;55.21
84374;BME280;74563;52.206;14.630;2024-01-25T08:39:25;101681.31;;;10.93;56.02
84374;BME280;74563;52.206;14.630;2024-01-25T08:41:51;101625.22;;;11.04;54.50
84374;BME280;74563;52.206;14.630;2024-01-25T08:44:16;101651.72;;;10.86;56.55
84374;BME280;74563;52.206;14.630;2024-01-25T08:46:41;101614.09;;;11.08;53.61
84374;BME280;74563;52.206;14.630;2024-01-25T08:49:08;101646.38;;;10.96;54.56
84374;BME280;74563;52.206;14.630;2024-01-25T08:51:35;101669.50;;;11.24;54.05
84374;BME280;74563;52.206;14.630;2024-01-25T08:54:00;101686.53;;;11.70;53.30
84374;BME280;74563;52.206;14.630;2024-01-25T08:56:26;101682.91;;;11.71;53.92
84374;BME280;74563;52.206;14.630;2024-01-25T08:58:51;101682.34;;;11.57;53.97
84374;BME280;74563;52.206;14.630;2024-01-25T09:01:17;101671.75;;;11.19;54.88
84374;BME280;74563;52.206;14.630;2024-01-25T09:03:43;101631.59;;;11.30;53.84
84374;BME280;74563;52.206;14.630;2024-01-25T09:06:08;101691.06;;;11.40;53.79
84374;BME280;74563;52.206;14.630;2024-01-25T09:08:34;101624.63;;;11.20;53.78
84374;BME280;74563;52.206;14.630;2024-01-25T09:11:00;101687.03;;;11.27;54.33
84374;BME280;74563;52.206;14.630;2024-01-25T09:13:25;101691.41;;;11.18;54.78
84374;BME280;74563;52.206;14.630;2024-01-25T09:15:50;101683.75;;;11.71;53.41
84374;BME280;74563;52.206;14.630;2024-01-25T09:18:15;101698.13;;;11.32;54.41
84374;BME280;74563;52.206;14.630;2024-01-25T09:20:41;101670.19;;;11.26;53.71
84374;BME280;74563;52.206;14.630;2024-01-25T09:23:09;101712.97;;;11.44;53.44
84374;BME280;74563;52.206;14.630;2024-01-25T09:25:35;101700.09;;;11.20;54.23
84374;BME280;74563;52.206;14.630;2024-01-25T09:28:01;101725.59;;;11.23;54.56
84374;BME280;74563;52.206;14.630;2024-01-25T09:30:26;101730.28;;;11.96;53.17
84374;BME280;74563;52.206;14.630;2024-01-25T09:32:52;101726.56;;;11.60;53.11
84374;BME280;74563;52.206;14.630;2024-01-25T09:35:17;101721.38;;;11.58;53.05
84374;BME280;74563;52.206;14.630;2024-01-25T09:37:42;101738.81;;;11.15;55.00
84374;BME280;74563;52.206;14.630;2024-01-25T09:40:08;101742.84;;;11.76;53.27
84374;BME280;74563;52.206;14.630;2024-01-25T09:42:34;101742.97;;;11.65;53.44
84374;BME280;74563;52.206;14.630;2024-01-25T09:45:01;101710.19;;;11.07;54.45
84374;BME280;74563;52.206;14.630;2024-01-25T09:47:27;101736.69;;;11.56;53.63
84374;BME280;74563;52.206;14.630;2024-01-25T09:49:52;101739.06;;;11.40;54.84
84374;BME280;74563;52.206;14.630;2024-01-25T09:52:19;101719.03;;;11.27;54.26
84374;BME280;74563;52.206;14.630;2024-01-25T09:54:52;101736.25;;;11.71;53.59
84374;BME280;74563;52.206;14.630;2024-01-25T09:57:22;101743.34;;;11.99;52.92
84374;BME280;74563;52.206;14.630;2024-01-25T09:59:49;101754.19;;;10.92;55.83
84374;BME280;74563;52.206;14.630;2024-01-25T10:02:15;101730.66;;;11.45;54.45
84374;BME280;74563;52.206;14.630;2024-01-25T10:04:41;101733.31;;;11.26;54.28
84374;BME280;74563;52.206;14.630;2024-01-25T10:07:06;101760.13;;;11.63;54.16
84374;BME280;74563;52.206;14.630;2024-01-25T10:09:38;101764.78;;;12.26;52.03
84374;BME280;74563;52.206;14.630;2024-01-25T10:12:05;101746.09;;;11.22;54.46
84374;BME280;74563;52.206;14.630;2024-01-25T10:14:30;101760.50;;;11.96;52.64
84374;BME280;74563;52.206;14.630;2024-01-25T10:16:57;101756.03;;;11.58;53.91
84374;BME280;74563;52.206;14.630;2024-01-25T10:19:22;101732.47;;;11.25;54.57
84374;BME280;74563;52.206;14.630;2024-01-25T10:21:48;101744.81;;;11.55;53.08
84374;BME280;74563;52.206;14.630;2024-01-25T10:24:14;101752.09;;;11.82;52.15
84374;BME280;74563;52.206;14.630;2024-01-25T10:26:40;101768.00;;;11.74;52.94
84374;BME280;74563;52.206;14.630;2024-01-25T10:29:08;101705.72;;;11.17;54.04
84374;BME280;74563;52.206;14.630;2024-01-25T10:31:38;101743.41;;;11.51;52.83
84374;BME280;74563;52.206;14.630;2024-01-25T10:34:05;101760.94;;;11.82;52.89
84374;BME280;74563;52.206;14.630;2024-01-25T10:36:30;101772.63;;;11.52;53.59
84374;BME280;74563;52.206;14.630;2024-01-25T10:38:57;101767.69;;;11.29;54.38
84374;BME280;74563;52.206;14.630;2024-01-25T10:41:23;101774.25;;;11.92;52.64
84374;BME280;74563;52.206;14.630;2024-01-25T10:43:48;101763.06;;;11.12;54.92
84374;BME280;74563;52.206;14.630;2024-01-25T10:46:14;101782.44;;;11.62;53.73
84374;BME280;74563;52.206;14.630;2024-01-25T10:48:39;101760.66;;;11.95;51.96
84374;BME280;74563;52.206;14.630;2024-01-25T10:51:06;101768.16;;;12.09;52.10
84374;BME280;74563;52.206;14.630;2024-01-25T10:53:33;101762.66;;;11.54;53.53
84374;BME280;74563;52.206;14.630;2024-01-25T10:55:59;101762.88;;;10.84;55.34
84374;BME280;74563;52.206;14.630;2024-01-25T10:58:24;101798.84;;;11.47;54.06
84374;BME280;74563;52.206;14.630;2024-01-25T11:00:54;101784.97;;;11.73;53.17
84374;BME280;74563;52.206;14.630;2024-01-25T11:03:27;101806.44;;;11.71;52.75
84374;BME280;74563;52.206;14.630;2024-01-25T11:05:54;101793.25;;;11.79;52.42
84374;BME280;74563;52.206;14.630;2024-01-25T11:08:20;101790.72;;;11.58;53.17
84374;BME280;74563;52.206;14.630;2024-01-25T11:10:50;101800.00;;;11.83;52.66
84374;BME280;74563;52.206;14.630;2024-01-25T11:13:16;101803.91;;;11.98;52.73
84374;BME280;74563;52.206;14.630;2024-01-25T11:15:41;101794.38;;;11.86;53.29
84374;BME280;74563;52.206;14.630;2024-01-25T11:18:08;101792.97;;;11.82;52.77
84374;BME280;74563;52.206;14.630;2024-01-25T11:20:35;101805.66;;;12.17;52.27
84374;BME280;74563;52.206;14.630;2024-01-25T11:23:04;101792.91;;;12.11;51.71
84374;BME280;74563;52.206;14.630;2024-01-25T11:25:36;101797.28;;;11.64;52.91
84374;BME280;74563;52.206;14.630;2024-01-25T11:28:02;101775.84;;;11.75;52.47
84374;BME280;74563;52.206;14.630;2024-01-25T11:30:30;101780.47;;;11.64;53.58
84374;BME280;74563;52.206;14.630;2024-01-25T11:32:56;101754.81;;;11.24;54.09
84374;BME280;74563;52.206;14.630;2024-01-25T11:35:21;101755.47;;;11.36;53.49
84374;BME280;74563;52.206;14.630;2024-01-25T11:37:48;101774.69;;;11.97;52.73
84374;BME280;74563;52.206;14.630;2024-01-25T11:40:14;101771.88;;;11.89;52.67
84374;BME280;74563;52.206;14.630;2024-01-25T11:42:42;101805.03;;;11.86;53.29
84374;BME280;74563;52.206;14.630;2024-01-25T11:45:11;101798.69;;;11.97;52.52
84374;BME280;74563;52.206;14.630;2024-01-25T11:47:38;101781.84;;;11.96;52.09
84374;BME280;74563;52.206;14.630;2024-01-25T11:50:09;101807.72;;;11.86;53.18
84374;BME280;74563;52.206;14.630;2024-01-25T11:52:35;101786.31;;;12.15;51.64
84374;BME280;74563;52.206;14.630;2024-01-25T11:55:06;101805.47;;;11.63;53.23
84374;BME280;74563;52.206;14.630;2024-01-25T11:57:42;101808.56;;;11.39;52.60
84374;BME280;74563;52.206;14.630;2024-01-25T12:00:09;101822.44;;;12.00;52.59
84374;BME280;74563;52.206;14.630;2024-01-25T12:02:36;101808.28;;;12.36;51.32
84374;BME280;74563;52.206;14.630;2024-01-25T12:05:05;101793.94;;;11.62;52.52
84374;BME280;74563;52.206;14.630;2024-01-25T12:07:32;101819.63;;;11.92;51.77
84374;BME280;74563;52.206;14.630;2024-01-25T12:10:08;101789.00;;;11.00;53.43
84374;BME280;74563;52.206;14.630;2024-01-25T12:12:37;101816.22;;;12.09;51.28
84374;BME280;74563;52.206;14.630;2024-01-25T12:15:05;101827.41;;;12.32;50.86
84374;BME280;74563;52.206;14.630;2024-01-25T12:17:32;101846.53;;;12.37;51.53
84374;BME280;74563;52.206;14.630;2024-01-25T12:19:58;101811.19;;;11.10;53.16
84374;BME280;74563;52.206;14.630;2024-01-25T12:22:26;101819.63;;;11.25;52.50
84374;BME280;74563;52.206;14.630;2024-01-25T12:24:56;101825.00;;;11.73;52.33
84374;BME280;74563;52.206;14.630;2024-01-25T12:27:22;101855.41;;;11.61;51.95
84374;BME280;74563;52.206;14.630;2024-01-25T12:29:49;101838.31;;;11.92;50.97
84374;BME280;74563;52.206;14.630;2024-01-25T12:32:14;101832.84;;;11.93;51.33
84374;BME280;74563;52.206;14.630;2024-01-25T12:34:39;101820.53;;;12.20;50.37